sensor_id;sensor_type;location;lat;lon;timestamp;pressure;altitude;pressure_sealevel;temperature;humidity
66742;BME280;53654;54.152;19.432;2023-05-27T00:00:37;102635.52;;;10.68;76.99
66742;BME280;53654;54.152;19.432;2023-05-27T00:03:25;102631.77;;;10.64;77.01
66742;BME280;53654;54.152;19.432;2023-05-27T00:05:54;102634.17;;;10.63;77.18
66742;BME280;53654;54.152;19.432;2023-05-27T00:08:22;102636.98;;;10.63;77.19
66742;BME280;53654;54.152;19.432;2023-05-27T00:10:50;102640.10;;;10.62;77.24
66742;BME280;53654;54.152;19.432;2023-05-27T00:13:18;102639.25;;;10.63;77.27
66742;BME280;53654;54.152;19.432;2023-05-27T00:15:46;102642.93;;;10.64;76.84
66742;BME280;53654;54.152;19.432;2023-05-27T00:18:14;102643.10;;;10.64;76.73
66742;BME280;53654;54.152;19.432;2023-05-27T00:20:43;102642.60;;;10.65;77.06
66742;BME280;53654;54.152;19.432;2023-05-27T00:23:11;102640.88;;;10.66;77.08
66742;BME280;53654;54.152;19.432;2023-05-27T00:25:40;102637.02;;;10.65;77.13
66742;BME280;53654;54.152;19.432;2023-05-27T00:28:09;102636.82;;;10.64;76.80
66742;BME280;53654;54.152;19.432;2023-05-27T00:30:37;102636.45;;;10.63;76.62
66742;BME280;53654;54.152;19.432;2023-05-27T00:33:05;102639.57;;;10.62;76.69
66742;BME280;53654;54.152;19.432;2023-05-27T00:35:33;102645.14;;;10.62;76.35
66742;BME280;53654;54.152;19.432;2023-05-27T00:38:04;102642.88;;;10.62;76.16
66742;BME280;53654;54.152;19.432;2023-05-27T00:40:34;102643.38;;;10.61;76.02
66742;BME280;53654;54.152;19.432;2023-05-27T00:43:03;102642.86;;;10.61;76.02
66742;BME280;53654;54.152;19.432;2023-05-27T00:45:31;102639.30;;;10.58;76.22
66742;BME280;53654;54.152;19.432;2023-05-27T00:48:02;102638.36;;;10.55;76.36
66742;BME280;53654;54.152;19.432;2023-05-27T00:50:31;102633.39;;;10.51;76.47
66742;BME280;53654;54.152;19.432;2023-05-27T00:52:59;102635.98;;;10.49;76.49
66742;BME280;53654;54.152;19.432;2023-05-27T00:55:28;102632.97;;;10.47;76.45
66742;BME280;53654;54.152;19.432;2023-05-27T00:57:56;102635.91;;;10.47;76.46
66742;BME280;53654;54.152;19.432;2023-05-27T01:00:24;102638.11;;;10.44;76.63
66742;BME280;53654;54.152;19.432;2023-05-27T01:02:53;102643.16;;;10.43;76.67
66742;BME280;53654;54.152;19.432;2023-05-27T01:05:22;102641.33;;;10.40;76.85
66742;BME280;53654;54.152;19.432;2023-05-27T01:10:50;102647.74;;;10.31;76.35
66742;BME280;53654;54.152;19.432;2023-05-27T01:16:01;102655.02;;;10.22;76.46
66742;BME280;53654;54.152;19.432;2023-05-27T01:18:31;102656.30;;;10.18;76.55
66742;BME280;53654;54.152;19.432;2023-05-27T01:21:06;102659.06;;;10.17;76.60
66742;BME280;53654;54.152;19.432;2023-05-27T01:23:35;102663.19;;;10.14;76.29
66742;BME280;53654;54.152;19.432;2023-05-27T01:26:06;102664.48;;;10.11;76.02
66742;BME280;53654;54.152;19.432;2023-05-27T01:28:35;102662.49;;;10.07;75.90
66742;BME280;53654;54.152;19.432;2023-05-27T01:31:18;102662.06;;;10.03;75.85
66742;BME280;53654;54.152;19.432;2023-05-27T01:34:15;102663.66;;;9.98;75.82
66742;BME280;53654;54.152;19.432;2023-05-27T01:36:54;102660.52;;;9.90;75.86
66742;BME280;53654;54.152;19.432;2023-05-27T01:39:24;102661.82;;;9.87;76.01
66742;BME280;53654;54.152;19.432;2023-05-27T01:41:54;102661.59;;;9.85;75.96
66742;BME280;53654;54.152;19.432;2023-05-27T01:44:23;102659.80;;;9.82;75.91
66742;BME280;53654;54.152;19.432;2023-05-27T01:46:51;102661.48;;;9.80;75.88
66742;BME280;53654;54.152;19.432;2023-05-27T01:49:19;102661.95;;;9.78;75.78
66742;BME280;53654;54.152;19.432;2023-05-27T01:51:47;102664.32;;;9.75;75.76
66742;BME280;53654;54.152;19.432;2023-05-27T01:54:16;102665.45;;;9.72;75.83
66742;BME280;53654;54.152;19.432;2023-05-27T01:56:44;102662.79;;;9.70;75.83
66742;BME280;53654;54.152;19.432;2023-05-27T02:02:35;102666.32;;;9.58;76.03
66742;BME280;53654;54.152;19.432;2023-05-27T02:05:04;102664.21;;;9.58;76.09
66742;BME280;53654;54.152;19.432;2023-05-27T02:07:33;102669.95;;;9.57;75.84
66742;BME280;53654;54.152;19.432;2023-05-27T02:10:02;102670.65;;;9.57;75.77
66742;BME280;53654;54.152;19.432;2023-05-27T02:12:30;102676.22;;;9.57;75.84
66742;BME280;53654;54.152;19.432;2023-05-27T02:14:58;102680.56;;;9.57;75.97
66742;BME280;53654;54.152;19.432;2023-05-27T02:17:26;102678.49;;;9.57;76.05
66742;BME280;53654;54.152;19.432;2023-05-27T02:19:55;102683.55;;;9.57;76.06
66742;BME280;53654;54.152;19.432;2023-05-27T02:22:24;102682.83;;;9.56;75.84
66742;BME280;53654;54.152;19.432;2023-05-27T02:24:52;102686.09;;;9.54;75.67
66742;BME280;53654;54.152;19.432;2023-05-27T02:27:20;102683.41;;;9.52;75.68
66742;BME280;53654;54.152;19.432;2023-05-27T02:29:48;102684.06;;;9.51;75.77
66742;BME280;53654;54.152;19.432;2023-05-27T02:32:17;102688.54;;;9.48;75.70
66742;BME280;53654;54.152;19.432;2023-05-27T02:34:45;102686.20;;;9.46;75.73
66742;BME280;53654;54.152;19.432;2023-05-27T02:37:13;102687.36;;;9.44;75.73
66742;BME280;53654;54.152;19.432;2023-05-27T02:39:41;102689.86;;;9.40;75.69
66742;BME280;53654;54.152;19.432;2023-05-27T02:42:10;102691.55;;;9.37;75.68
66742;BME280;53654;54.152;19.432;2023-05-27T02:44:38;102698.61;;;9.34;75.72
66742;BME280;53654;54.152;19.432;2023-05-27T02:47:08;102705.14;;;9.31;75.73
66742;BME280;53654;54.152;19.432;2023-05-27T02:49:36;102703.84;;;9.28;75.35
66742;BME280;53654;54.152;19.432;2023-05-27T02:52:05;102703.21;;;9.24;75.29
66742;BME280;53654;54.152;19.432;2023-05-27T02:54:33;102705.06;;;9.22;75.23
66742;BME280;53654;54.152;19.432;2023-05-27T02:57:01;102706.04;;;9.20;75.41
66742;BME280;53654;54.152;19.432;2023-05-27T02:59:29;102704.46;;;9.19;75.62
66742;BME280;53654;54.152;19.432;2023-05-27T03:01:58;102711.07;;;9.19;75.73
66742;BME280;53654;54.152;19.432;2023-05-27T03:04:26;102712.48;;;9.20;75.81
66742;BME280;53654;54.152;19.432;2023-05-27T03:06:55;102712.00;;;9.22;76.04
66742;BME280;53654;54.152;19.432;2023-05-27T03:09:23;102713.45;;;9.23;76.23
66742;BME280;53654;54.152;19.432;2023-05-27T03:11:51;102717.02;;;9.26;76.13
66742;BME280;53654;54.152;19.432;2023-05-27T03:14:20;102720.44;;;9.30;76.30
66742;BME280;53654;54.152;19.432;2023-05-27T03:16:48;102715.84;;;9.33;76.21
66742;BME280;53654;54.152;19.432;2023-05-27T03:19:16;102720.14;;;9.38;76.35
66742;BME280;53654;54.152;19.432;2023-05-27T03:21:44;102726.19;;;9.43;76.46
66742;BME280;53654;54.152;19.432;2023-05-27T03:24:13;102724.75;;;9.48;76.50
66742;BME280;53654;54.152;19.432;2023-05-27T03:26:41;102722.32;;;9.54;76.64
66742;BME280;53654;54.152;19.432;2023-05-27T03:29:10;102719.71;;;9.61;76.46
66742;BME280;53654;54.152;19.432;2023-05-27T03:31:38;102718.95;;;9.65;76.25
66742;BME280;53654;54.152;19.432;2023-05-27T03:34:11;102722.58;;;9.70;75.93
66742;BME280;53654;54.152;19.432;2023-05-27T03:36:40;102728.47;;;9.75;75.81
66742;BME280;53654;54.152;19.432;2023-05-27T03:39:13;102734.40;;;9.82;75.62
66742;BME280;53654;54.152;19.432;2023-05-27T03:41:46;102736.37;;;9.91;75.37
66742;BME280;53654;54.152;19.432;2023-05-27T03:44:14;102737.14;;;10.00;75.01
66742;BME280;53654;54.152;19.432;2023-05-27T03:46:42;102740.12;;;10.15;74.91
66742;BME280;53654;54.152;19.432;2023-05-27T03:49:11;102743.96;;;10.49;74.69
66742;BME280;53654;54.152;19.432;2023-05-27T03:51:40;102742.21;;;11.03;73.52
66742;BME280;53654;54.152;19.432;2023-05-27T03:54:08;102741.71;;;11.65;71.31
66742;BME280;53654;54.152;19.432;2023-05-27T03:56:36;102742.66;;;12.27;68.99
66742;BME280;53654;54.152;19.432;2023-05-27T03:59:05;102744.27;;;12.88;66.62
66742;BME280;53654;54.152;19.432;2023-05-27T04:01:34;102743.85;;;13.49;64.53
66742;BME280;53654;54.152;19.432;2023-05-27T04:04:03;102740.58;;;14.09;62.37
66742;BME280;53654;54.152;19.432;2023-05-27T04:06:32;102741.59;;;14.70;60.34
66742;BME280;53654;54.152;19.432;2023-05-27T04:09:01;102746.08;;;15.28;58.32
66742;BME280;53654;54.152;19.432;2023-05-27T04:11:31;102740.48;;;15.80;56.89
66742;BME280;53654;54.152;19.432;2023-05-27T04:13:59;102745.43;;;16.22;55.48
66742;BME280;53654;54.152;19.432;2023-05-27T04:16:27;102749.11;;;16.62;54.21
66742;BME280;53654;54.152;19.432;2023-05-27T04:19:02;102750.77;;;17.04;53.01
66742;BME280;53654;54.152;19.432;2023-05-27T04:21:30;102746.86;;;17.48;51.99
66742;BME280;53654;54.152;19.432;2023-05-27T04:23:59;102742.19;;;17.93;50.84
66742;BME280;53654;54.152;19.432;2023-05-27T04:26:29;102743.30;;;18.29;49.70
66742;BME280;53654;54.152;19.432;2023-05-27T04:28:57;102743.34;;;18.64;48.65
66742;BME280;53654;54.152;19.432;2023-05-27T04:31:28;102743.85;;;18.99;47.66
66742;BME280;53654;54.152;19.432;2023-05-27T04:34:03;102740.47;;;19.28;46.97
66742;BME280;53654;54.152;19.432;2023-05-27T04:36:32;102741.73;;;19.54;46.52
66742;BME280;53654;54.152;19.432;2023-05-27T04:39:09;102742.91;;;19.82;45.94
66742;BME280;53654;54.152;19.432;2023-05-27T04:41:42;102748.16;;;20.08;45.61
66742;BME280;53654;54.152;19.432;2023-05-27T04:44:23;102752.21;;;20.31;44.84
66742;BME280;53654;54.152;19.432;2023-05-27T04:46:55;102754.98;;;20.56;44.28
66742;BME280;53654;54.152;19.432;2023-05-27T04:49:23;102753.84;;;20.79;43.70
66742;BME280;53654;54.152;19.432;2023-05-27T04:51:54;102747.57;;;21.02;43.32
66742;BME280;53654;54.152;19.432;2023-05-27T04:54:23;102751.01;;;21.25;42.47
66742;BME280;53654;54.152;19.432;2023-05-27T04:56:51;102750.59;;;21.44;42.73
66742;BME280;53654;54.152;19.432;2023-05-27T04:59:27;102756.21;;;21.62;41.95
66742;BME280;53654;54.152;19.432;2023-05-27T05:02:17;102751.27;;;21.76;41.48
66742;BME280;53654;54.152;19.432;2023-05-27T05:05:16;102749.58;;;21.87;41.37
66742;BME280;53654;54.152;19.432;2023-05-27T05:07:45;102750.35;;;22.08;41.05
66742;BME280;53654;54.152;19.432;2023-05-27T05:10:14;102753.06;;;22.28;40.87
66742;BME280;53654;54.152;19.432;2023-05-27T05:12:47;102751.91;;;22.44;40.45
66742;BME280;53654;54.152;19.432;2023-05-27T05:15:16;102751.14;;;22.66;40.32
66742;BME280;53654;54.152;19.432;2023-05-27T05:17:44;102746.20;;;22.85;40.84
66742;BME280;53654;54.152;19.432;2023-05-27T05:20:14;102751.65;;;23.00;40.55
66742;BME280;53654;54.152;19.432;2023-05-27T05:22:42;102752.57;;;23.11;40.15
66742;BME280;53654;54.152;19.432;2023-05-27T05:25:10;102747.29;;;23.21;39.88
66742;BME280;53654;54.152;19.432;2023-05-27T05:27:43;102750.02;;;23.36;40.03
66742;BME280;53654;54.152;19.432;2023-05-27T05:30:11;102749.94;;;23.44;39.35
66742;BME280;53654;54.152;19.432;2023-05-27T05:32:40;102749.73;;;23.45;38.84
66742;BME280;53654;54.152;19.432;2023-05-27T05:35:08;102750.40;;;23.41;39.21
66742;BME280;53654;54.152;19.432;2023-05-27T05:37:39;102750.83;;;23.33;39.76
66742;BME280;53654;54.152;19.432;2023-05-27T05:40:09;102752.30;;;23.31;39.70
66742;BME280;53654;54.152;19.432;2023-05-27T05:42:41;102753.28;;;23.40;39.46
66742;BME280;53654;54.152;19.432;2023-05-27T05:45:09;102753.65;;;23.52;39.29
66742;BME280;53654;54.152;19.432;2023-05-27T05:47:38;102753.62;;;23.70;38.84
66742;BME280;53654;54.152;19.432;2023-05-27T05:50:10;102750.73;;;23.93;38.68
66742;BME280;53654;54.152;19.432;2023-05-27T05:52:38;102751.61;;;24.15;38.24
66742;BME280;53654;54.152;19.432;2023-05-27T05:55:07;102753.30;;;24.40;37.50
66742;BME280;53654;54.152;19.432;2023-05-27T05:57:35;102755.49;;;24.58;36.74
66742;BME280;53654;54.152;19.432;2023-05-27T06:00:05;102761.88;;;24.79;36.32
66742;BME280;53654;54.152;19.432;2023-05-27T06:02:44;102766.05;;;24.87;35.95
66742;BME280;53654;54.152;19.432;2023-05-27T06:05:25;102769.54;;;24.89;35.85
66742;BME280;53654;54.152;19.432;2023-05-27T06:07:56;102769.16;;;24.90;35.49
66742;BME280;53654;54.152;19.432;2023-05-27T06:10:25;102767.00;;;24.90;35.16
66742;BME280;53654;54.152;19.432;2023-05-27T06:12:53;102771.36;;;24.93;34.17
66742;BME280;53654;54.152;19.432;2023-05-27T06:15:22;102771.44;;;25.01;34.58
66742;BME280;53654;54.152;19.432;2023-05-27T06:17:52;102774.64;;;25.07;34.07
66742;BME280;53654;54.152;19.432;2023-05-27T06:20:20;102780.39;;;25.01;33.54
66742;BME280;53654;54.152;19.432;2023-05-27T06:22:49;102779.12;;;25.02;32.96
66742;BME280;53654;54.152;19.432;2023-05-27T06:25:32;102777.44;;;24.98;31.55
66742;BME280;53654;54.152;19.432;2023-05-27T06:28:05;102776.70;;;24.99;31.86
66742;BME280;53654;54.152;19.432;2023-05-27T06:30:33;102783.41;;;25.01;31.89
66742;BME280;53654;54.152;19.432;2023-05-27T06:33:02;102781.90;;;24.93;31.67
66742;BME280;53654;54.152;19.432;2023-05-27T06:35:31;102779.31;;;24.76;31.72
66742;BME280;53654;54.152;19.432;2023-05-27T06:38:01;102786.85;;;24.49;31.74
66742;BME280;53654;54.152;19.432;2023-05-27T06:40:29;102789.21;;;24.27;33.26
66742;BME280;53654;54.152;19.432;2023-05-27T06:42:57;102789.63;;;24.09;32.95
66742;BME280;53654;54.152;19.432;2023-05-27T06:45:52;102793.56;;;23.86;30.31
66742;BME280;53654;54.152;19.432;2023-05-27T06:48:38;102793.61;;;23.73;29.38
66742;BME280;53654;54.152;19.432;2023-05-27T06:51:07;102794.24;;;23.70;28.90
66742;BME280;53654;54.152;19.432;2023-05-27T06:53:36;102793.48;;;23.61;28.46
66742;BME280;53654;54.152;19.432;2023-05-27T06:56:09;102793.42;;;23.50;28.43
66742;BME280;53654;54.152;19.432;2023-05-27T06:58:56;102801.34;;;23.35;27.73
66742;BME280;53654;54.152;19.432;2023-05-27T07:01:24;102799.83;;;23.20;27.22
66742;BME280;53654;54.152;19.432;2023-05-27T07:03:58;102803.30;;;23.04;27.73
66742;BME280;53654;54.152;19.432;2023-05-27T07:06:36;102803.49;;;22.78;27.62
66742;BME280;53654;54.152;19.432;2023-05-27T07:09:05;102805.13;;;22.70;27.52
66742;BME280;53654;54.152;19.432;2023-05-27T07:11:35;102806.52;;;22.70;27.06
66742;BME280;53654;54.152;19.432;2023-05-27T07:14:07;102804.61;;;22.75;26.84
66742;BME280;53654;54.152;19.432;2023-05-27T07:16:38;102805.05;;;22.80;25.94
66742;BME280;53654;54.152;19.432;2023-05-27T07:19:07;102801.59;;;22.96;25.77
66742;BME280;53654;54.152;19.432;2023-05-27T07:21:42;102801.84;;;23.06;26.84
66742;BME280;53654;54.152;19.432;2023-05-27T07:24:15;102803.42;;;23.01;25.91
66742;BME280;53654;54.152;19.432;2023-05-27T07:26:43;102802.86;;;23.01;25.32
66742;BME280;53654;54.152;19.432;2023-05-27T07:29:11;102801.75;;;22.97;25.55
66742;BME280;53654;54.152;19.432;2023-05-27T07:31:54;102795.04;;;22.88;25.95
66742;BME280;53654;54.152;19.432;2023-05-27T07:34:29;102796.73;;;22.77;26.18
66742;BME280;53654;54.152;19.432;2023-05-27T07:36:57;102798.33;;;22.64;26.02
66742;BME280;53654;54.152;19.432;2023-05-27T07:39:25;102796.71;;;22.45;25.63
66742;BME280;53654;54.152;19.432;2023-05-27T07:41:54;102794.31;;;22.27;25.48
66742;BME280;53654;54.152;19.432;2023-05-27T07:44:23;102789.39;;;22.10;25.21
66742;BME280;53654;54.152;19.432;2023-05-27T07:46:51;102790.45;;;21.87;24.91
66742;BME280;53654;54.152;19.432;2023-05-27T07:49:19;102792.50;;;21.68;25.36
66742;BME280;53654;54.152;19.432;2023-05-27T07:52:11;102793.70;;;21.46;25.66
66742;BME280;53654;54.152;19.432;2023-05-27T07:54:40;102798.51;;;21.36;26.86
66742;BME280;53654;54.152;19.432;2023-05-27T07:57:21;102800.26;;;21.20;26.39
66742;BME280;53654;54.152;19.432;2023-05-27T07:59:49;102799.56;;;21.01;26.47
66742;BME280;53654;54.152;19.432;2023-05-27T08:02:18;102797.12;;;20.79;26.45
66742;BME280;53654;54.152;19.432;2023-05-27T08:04:51;102798.39;;;20.57;27.02
66742;BME280;53654;54.152;19.432;2023-05-27T08:07:24;102795.59;;;20.45;26.12
66742;BME280;53654;54.152;19.432;2023-05-27T08:10:07;102793.09;;;20.23;26.37
66742;BME280;53654;54.152;19.432;2023-05-27T08:13:02;102787.63;;;20.11;26.47
66742;BME280;53654;54.152;19.432;2023-05-27T08:15:53;102785.74;;;20.07;25.21
66742;BME280;53654;54.152;19.432;2023-05-27T08:18:35;102780.97;;;20.07;25.36
66742;BME280;53654;54.152;19.432;2023-05-27T08:21:12;102776.90;;;20.06;26.37
66742;BME280;53654;54.152;19.432;2023-05-27T08:23:52;102775.39;;;20.00;26.70
66742;BME280;53654;54.152;19.432;2023-05-27T08:26:35;102775.05;;;19.88;27.28
66742;BME280;53654;54.152;19.432;2023-05-27T08:29:25;102777.23;;;19.84;27.89
66742;BME280;53654;54.152;19.432;2023-05-27T08:32:15;102776.58;;;19.81;27.30
66742;BME280;53654;54.152;19.432;2023-05-27T08:34:44;102778.81;;;19.85;26.35
66742;BME280;53654;54.152;19.432;2023-05-27T08:37:12;102776.27;;;19.90;25.29
66742;BME280;53654;54.152;19.432;2023-05-27T08:39:42;102775.89;;;19.92;25.49
66742;BME280;53654;54.152;19.432;2023-05-27T08:42:32;102775.88;;;19.92;25.98
66742;BME280;53654;54.152;19.432;2023-05-27T08:45:00;102768.86;;;19.99;26.33
66742;BME280;53654;54.152;19.432;2023-05-27T08:47:29;102773.95;;;20.13;26.50
66742;BME280;53654;54.152;19.432;2023-05-27T08:49:58;102772.23;;;20.21;26.43
66742;BME280;53654;54.152;19.432;2023-05-27T08:52:28;102769.30;;;20.26;26.46
66742;BME280;53654;54.152;19.432;2023-05-27T08:54:57;102770.83;;;20.31;26.86
66742;BME280;53654;54.152;19.432;2023-05-27T08:57:30;102773.23;;;20.36;27.17
66742;BME280;53654;54.152;19.432;2023-05-27T09:00:00;102773.63;;;20.44;27.28
66742;BME280;53654;54.152;19.432;2023-05-27T09:02:29;102774.30;;;20.56;26.49
66742;BME280;53654;54.152;19.432;2023-05-27T09:04:58;102775.92;;;20.74;26.63
66742;BME280;53654;54.152;19.432;2023-05-27T09:07:26;102772.59;;;20.92;26.39
66742;BME280;53654;54.152;19.432;2023-05-27T09:09:58;102775.73;;;21.05;25.88
66742;BME280;53654;54.152;19.432;2023-05-27T09:12:27;102773.05;;;21.13;24.72
66742;BME280;53654;54.152;19.432;2023-05-27T09:14:56;102772.39;;;21.20;24.72
66742;BME280;53654;54.152;19.432;2023-05-27T09:17:25;102779.38;;;21.26;24.90
66742;BME280;53654;54.152;19.432;2023-05-27T09:19:54;102772.33;;;21.32;24.75
66742;BME280;53654;54.152;19.432;2023-05-27T09:22:25;102770.23;;;21.39;25.12
66742;BME280;53654;54.152;19.432;2023-05-27T09:24:54;102763.11;;;21.40;24.85
66742;BME280;53654;54.152;19.432;2023-05-27T09:27:28;102763.10;;;21.48;25.65
66742;BME280;53654;54.152;19.432;2023-05-27T09:29:58;102761.48;;;21.65;26.13
66742;BME280;53654;54.152;19.432;2023-05-27T09:32:27;102757.70;;;21.75;25.42
66742;BME280;53654;54.152;19.432;2023-05-27T09:34:56;102761.31;;;21.80;25.09
66742;BME280;53654;54.152;19.432;2023-05-27T09:37:30;102753.85;;;21.87;25.29
66742;BME280;53654;54.152;19.432;2023-05-27T09:40:08;102756.86;;;21.95;26.06
66742;BME280;53654;54.152;19.432;2023-05-27T09:42:47;102753.84;;;22.04;25.55
66742;BME280;53654;54.152;19.432;2023-05-27T09:45:20;102757.73;;;22.11;25.78
66742;BME280;53654;54.152;19.432;2023-05-27T09:47:50;102751.31;;;22.12;25.20
66742;BME280;53654;54.152;19.432;2023-05-27T09:50:21;102748.52;;;22.10;25.10
66742;BME280;53654;54.152;19.432;2023-05-27T09:52:49;102744.85;;;21.99;24.70
66742;BME280;53654;54.152;19.432;2023-05-27T09:55:20;102736.80;;;21.94;24.81
66742;BME280;53654;54.152;19.432;2023-05-27T09:57:50;102734.03;;;21.84;24.72
66742;BME280;53654;54.152;19.432;2023-05-27T10:00:20;102732.01;;;21.79;25.02
66742;BME280;53654;54.152;19.432;2023-05-27T10:02:49;102730.77;;;21.79;25.51
66742;BME280;53654;54.152;19.432;2023-05-27T10:05:17;102731.50;;;21.86;25.57
66742;BME280;53654;54.152;19.432;2023-05-27T10:07:48;102738.66;;;21.91;27.58
66742;BME280;53654;54.152;19.432;2023-05-27T10:10:19;102736.61;;;21.88;27.76
66742;BME280;53654;54.152;19.432;2023-05-27T10:12:50;102737.88;;;21.72;27.67
66742;BME280;53654;54.152;19.432;2023-05-27T10:15:29;102741.80;;;21.48;27.44
66742;BME280;53654;54.152;19.432;2023-05-27T10:18:03;102743.39;;;21.32;26.95
66742;BME280;53654;54.152;19.432;2023-05-27T10:20:39;102740.99;;;21.19;27.01
66742;BME280;53654;54.152;19.432;2023-05-27T10:23:13;102739.17;;;21.04;26.73
66742;BME280;53654;54.152;19.432;2023-05-27T10:25:49;102740.77;;;20.87;27.15
66742;BME280;53654;54.152;19.432;2023-05-27T10:28:43;102752.08;;;20.69;27.38
66742;BME280;53654;54.152;19.432;2023-05-27T10:31:17;102751.89;;;20.51;27.83
66742;BME280;53654;54.152;19.432;2023-05-27T10:33:49;102743.38;;;20.41;29.02
66742;BME280;53654;54.152;19.432;2023-05-27T10:36:26;102739.15;;;20.38;29.49
66742;BME280;53654;54.152;19.432;2023-05-27T10:39:08;102738.30;;;20.36;28.90
66742;BME280;53654;54.152;19.432;2023-05-27T10:41:57;102741.79;;;20.29;29.14
66742;BME280;53654;54.152;19.432;2023-05-27T10:47:10;102732.40;;;20.29;31.45
66742;BME280;53654;54.152;19.432;2023-05-27T10:49:40;102739.09;;;20.21;30.87
66742;BME280;53654;54.152;19.432;2023-05-27T10:52:10;102736.99;;;20.08;30.67
66742;BME280;53654;54.152;19.432;2023-05-27T10:54:45;102732.67;;;19.92;30.52
66742;BME280;53654;54.152;19.432;2023-05-27T10:57:15;102739.92;;;19.81;31.12
66742;BME280;53654;54.152;19.432;2023-05-27T10:59:51;102734.20;;;19.74;30.84
66742;BME280;53654;54.152;19.432;2023-05-27T11:02:29;102730.36;;;19.57;31.82
66742;BME280;53654;54.152;19.432;2023-05-27T11:05:14;102729.54;;;19.53;31.98
66742;BME280;53654;54.152;19.432;2023-05-27T11:07:42;102727.19;;;19.56;32.70
66742;BME280;53654;54.152;19.432;2023-05-27T11:10:10;102722.90;;;19.59;31.81
66742;BME280;53654;54.152;19.432;2023-05-27T11:12:43;102726.62;;;19.59;32.03
66742;BME280;53654;54.152;19.432;2023-05-27T11:15:13;102731.30;;;19.52;31.79
66742;BME280;53654;54.152;19.432;2023-05-27T11:17:41;102731.36;;;19.35;31.94
66742;BME280;53654;54.152;19.432;2023-05-27T11:20:10;102728.31;;;19.25;32.25
66742;BME280;53654;54.152;19.432;2023-05-27T11:22:38;102730.30;;;19.21;32.32
66742;BME280;53654;54.152;19.432;2023-05-27T11:25:07;102726.27;;;19.19;32.37
66742;BME280;53654;54.152;19.432;2023-05-27T11:27:38;102721.50;;;19.18;31.66
66742;BME280;53654;54.152;19.432;2023-05-27T11:30:09;102722.73;;;19.18;31.76
66742;BME280;53654;54.152;19.432;2023-05-27T11:32:40;102719.66;;;19.10;31.29
66742;BME280;53654;54.152;19.432;2023-05-27T11:35:18;102713.26;;;18.98;31.69
66742;BME280;53654;54.152;19.432;2023-05-27T11:37:49;102722.55;;;18.90;31.85
66742;BME280;53654;54.152;19.432;2023-05-27T11:40:18;102718.02;;;18.85;31.63
66742;BME280;53654;54.152;19.432;2023-05-27T11:42:46;102718.55;;;18.85;31.58
66742;BME280;53654;54.152;19.432;2023-05-27T11:45:20;102721.58;;;18.83;31.41
66742;BME280;53654;54.152;19.432;2023-05-27T11:47:49;102722.38;;;18.74;31.34
66742;BME280;53654;54.152;19.432;2023-05-27T11:50:21;102721.60;;;18.66;31.72
66742;BME280;53654;54.152;19.432;2023-05-27T11:52:57;102716.51;;;18.61;31.82
66742;BME280;53654;54.152;19.432;2023-05-27T11:55:26;102714.29;;;18.52;31.79
66742;BME280;53654;54.152;19.432;2023-05-27T11:57:54;102718.05;;;18.47;32.03
66742;BME280;53654;54.152;19.432;2023-05-27T12:00:22;102711.33;;;18.47;31.88
66742;BME280;53654;54.152;19.432;2023-05-27T12:02:51;102708.64;;;18.51;32.02
66742;BME280;53654;54.152;19.432;2023-05-27T12:05:19;102709.84;;;18.54;31.67
66742;BME280;53654;54.152;19.432;2023-05-27T12:08:02;102701.23;;;18.50;31.60
66742;BME280;53654;54.152;19.432;2023-05-27T12:10:31;102700.02;;;18.48;31.67
66742;BME280;53654;54.152;19.432;2023-05-27T12:13:03;102695.77;;;18.48;32.03
66742;BME280;53654;54.152;19.432;2023-05-27T12:15:32;102689.93;;;18.49;32.27
66742;BME280;53654;54.152;19.432;2023-05-27T12:18:01;102686.02;;;18.52;32.19
66742;BME280;53654;54.152;19.432;2023-05-27T12:20:29;102685.83;;;18.53;32.02
66742;BME280;53654;54.152;19.432;2023-05-27T12:22:58;102689.89;;;18.53;31.39
66742;BME280;53654;54.152;19.432;2023-05-27T12:25:26;102688.84;;;18.52;31.05
66742;BME280;53654;54.152;19.432;2023-05-27T12:27:54;102686.55;;;18.51;30.92
66742;BME280;53654;54.152;19.432;2023-05-27T12:30:23;102679.67;;;18.50;30.69
66742;BME280;53654;54.152;19.432;2023-05-27T12:32:51;102685.15;;;18.49;31.15
66742;BME280;53654;54.152;19.432;2023-05-27T12:35:19;102687.98;;;18.50;31.02
66742;BME280;53654;54.152;19.432;2023-05-27T12:37:48;102678.61;;;18.50;30.93
66742;BME280;53654;54.152;19.432;2023-05-27T12:40:16;102679.14;;;18.51;31.14
66742;BME280;53654;54.152;19.432;2023-05-27T12:42:44;102674.22;;;18.48;31.21
66742;BME280;53654;54.152;19.432;2023-05-27T12:45:12;102675.67;;;18.43;31.71
66742;BME280;53654;54.152;19.432;2023-05-27T12:47:41;102677.80;;;18.43;31.70
66742;BME280;53654;54.152;19.432;2023-05-27T12:50:09;102679.02;;;18.45;31.39
66742;BME280;53654;54.152;19.432;2023-05-27T12:52:38;102672.46;;;18.47;31.09
66742;BME280;53654;54.152;19.432;2023-05-27T12:55:07;102667.49;;;18.49;30.90
66742;BME280;53654;54.152;19.432;2023-05-27T12:57:35;102666.26;;;18.49;31.13
66742;BME280;53654;54.152;19.432;2023-05-27T13:00:08;102672.44;;;18.49;31.13
66742;BME280;53654;54.152;19.432;2023-05-27T13:02:38;102672.79;;;18.49;30.70
66742;BME280;53654;54.152;19.432;2023-05-27T13:05:06;102673.00;;;18.45;30.64
66742;BME280;53654;54.152;19.432;2023-05-27T13:07:36;102666.52;;;18.41;30.78
66742;BME280;53654;54.152;19.432;2023-05-27T13:10:07;102659.79;;;18.42;30.86
66742;BME280;53654;54.152;19.432;2023-05-27T13:12:39;102662.79;;;18.43;30.89